createdAt,value
2018-09-13T00:00:05.979Z,0.90
2018-09-13T00:02:34.606Z,1.27
2018-09-13T00:05:03.006Z,1.20
2018-09-13T00:07:31.196Z,1.60
2018-09-13T00:09:59.350Z,1.33
2018-09-13T00:12:29.146Z,0.97
2018-09-13T00:14:59.672Z,1.17
2018-09-13T00:17:27.933Z,1.10
2018-09-13T00:19:56.082Z,1.00
2018-09-13T00:22:24.303Z,1.30
2018-09-13T00:24:52.471Z,1.00
2018-09-13T00:27:20.658Z,1.10
2018-09-13T00:29:48.846Z,1.00
2018-09-13T00:32:16.927Z,1.37
2018-09-13T00:34:45.036Z,1.20
2018-09-13T00:37:13.136Z,1.20
2018-09-13T00:39:41.228Z,1.27
2018-09-13T00:42:09.986Z,1.37
2018-09-13T00:44:38.071Z,1.30
2018-09-13T00:47:10.746Z,1.03
2018-09-13T00:49:38.925Z,1.40
2018-09-13T00:52:07.071Z,1.67
2018-09-13T00:54:35.246Z,1.30
2018-09-13T00:57:03.412Z,1.60
2018-09-13T00:59:31.634Z,1.33
2018-09-13T01:01:59.785Z,1.00
2018-09-13T01:04:27.957Z,1.23
2018-09-13T01:06:56.255Z,1.07
2018-09-13T01:09:24.374Z,1.20
2018-09-13T01:11:52.577Z,1.40
2018-09-13T01:14:20.761Z,1.30
2018-09-13T01:16:48.918Z,1.37
2018-09-13T01:19:17.051Z,1.40
2018-09-13T01:21:45.220Z,1.30
2018-09-13T01:24:13.361Z,1.60
2018-09-13T01:26:41.519Z,1.40
2018-09-13T01:29:09.638Z,1.13
2018-09-13T01:31:37.852Z,1.30
2018-09-13T01:34:06.066Z,1.30
2018-09-13T01:36:34.183Z,1.10
2018-09-13T01:39:02.290Z,1.30
2018-09-13T01:41:30.410Z,1.17
2018-09-13T01:43:58.583Z,1.00
2018-09-13T01:46:26.631Z,1.03
2018-09-13T01:48:54.747Z,1.30
2018-09-13T01:51:22.863Z,1.00
2018-09-13T01:53:50.948Z,1.10
2018-09-13T01:56:19.844Z,0.97
2018-09-13T01:58:47.977Z,1.17
2018-09-13T02:01:16.083Z,1.20
2018-09-13T02:03:44.220Z,1.40
2018-09-13T02:06:12.531Z,1.30
2018-09-13T02:08:41.317Z,1.20
2018-09-13T02:11:09.405Z,1.03
2018-09-13T02:13:37.567Z,1.10
2018-09-13T02:16:05.875Z,1.17
2018-09-13T02:18:33.992Z,1.10
2018-09-13T02:21:02.082Z,1.10
2018-09-13T02:23:31.081Z,1.30
2018-09-13T02:25:59.250Z,1.37
2018-09-13T02:28:27.378Z,1.20
2018-09-13T02:30:55.543Z,1.17
2018-09-13T02:33:23.628Z,1.40
2018-09-13T02:35:51.770Z,1.10
2018-09-13T02:38:19.916Z,1.10
2018-09-13T02:40:48.194Z,1.40
2018-09-13T02:43:16.385Z,1.13
2018-09-13T02:45:44.549Z,1.10
2018-09-13T02:48:12.657Z,1.30
2018-09-13T02:50:40.853Z,1.07
2018-09-13T02:53:09.046Z,0.93
2018-09-13T02:55:37.193Z,1.10
2018-09-13T02:58:05.385Z,1.40
2018-09-13T03:00:33.528Z,1.00
2018-09-13T03:03:01.638Z,1.20
2018-09-13T03:05:29.887Z,1.27
2018-09-13T03:07:58.048Z,1.00
2018-09-13T03:10:26.145Z,1.10
2018-09-13T03:12:54.362Z,1.03
2018-09-13T03:15:22.468Z,1.17
2018-09-13T03:17:50.544Z,1.20
2018-09-13T03:20:18.711Z,1.07
2018-09-13T03:22:46.793Z,1.20
2018-09-13T03:25:14.925Z,1.00
2018-09-13T03:27:42.990Z,1.03
2018-09-13T03:30:11.107Z,1.30
2018-09-13T03:32:39.165Z,1.23
2018-09-13T03:35:07.238Z,1.50
2018-09-13T03:37:35.443Z,0.90
2018-09-13T03:40:03.568Z,1.10
2018-09-13T03:42:31.659Z,1.23
2018-09-13T03:44:59.714Z,1.30
2018-09-13T03:47:27.988Z,1.50
2018-09-13T03:49:56.083Z,1.43
2018-09-13T03:52:25.047Z,1.03
2018-09-13T03:54:53.119Z,1.13
2018-09-13T03:57:21.221Z,1.53
2018-09-13T03:59:50.026Z,1.13
2018-09-13T04:02:18.186Z,1.20
2018-09-13T04:04:46.259Z,1.23
2018-09-13T04:07:14.329Z,1.60
2018-09-13T04:09:42.469Z,1.40
2018-09-13T04:12:10.952Z,1.17
2018-09-13T04:14:39.033Z,1.10
2018-09-13T04:17:07.202Z,1.50
2018-09-13T04:19:43.912Z,1.40
2018-09-13T04:22:12.583Z,1.70
2018-09-13T04:24:40.876Z,1.33
2018-09-13T04:27:09.266Z,1.60
2018-09-13T04:29:37.372Z,1.40
2018-09-13T04:32:05.657Z,1.40
2018-09-13T04:34:33.713Z,1.60
2018-09-13T04:37:01.842Z,1.20
2018-09-13T04:39:29.925Z,1.53
2018-09-13T04:41:58.172Z,1.50
2018-09-13T04:44:26.574Z,1.67
2018-09-13T04:46:54.919Z,1.73
2018-09-13T04:49:23.251Z,1.60
2018-09-13T04:51:51.378Z,1.80
2018-09-13T04:54:19.652Z,1.60
2018-09-13T04:56:47.780Z,1.70
2018-09-13T04:59:16.910Z,1.80
2018-09-13T05:01:45.016Z,1.90
2018-09-13T05:04:13.392Z,2.20
2018-09-13T05:06:42.031Z,1.83
2018-09-13T05:09:11.843Z,1.40
2018-09-13T05:11:40.006Z,2.20
2018-09-13T05:14:08.101Z,1.60
2018-09-13T05:16:36.292Z,2.10
2018-09-13T05:19:05.385Z,1.77
2018-09-13T05:21:34.026Z,2.00
2018-09-13T05:24:02.646Z,1.77
2018-09-13T05:26:30.736Z,2.00
2018-09-13T05:28:58.898Z,2.57
2018-09-13T05:31:27.142Z,1.80
2018-09-13T05:33:55.254Z,2.13
2018-09-13T05:36:23.432Z,1.57
2018-09-13T05:38:51.541Z,1.80
2018-09-13T05:41:20.383Z,2.07
2018-09-13T05:43:48.460Z,2.20
2018-09-13T05:46:16.564Z,1.53
2018-09-13T05:48:44.693Z,2.20
2018-09-13T05:51:14.223Z,2.83
2018-09-13T05:53:42.418Z,2.00
2018-09-13T05:56:10.701Z,2.17
2018-09-13T05:58:38.830Z,2.07
2018-09-13T06:01:07.202Z,2.17
2018-09-13T06:03:35.323Z,2.00
2018-09-13T06:06:03.480Z,2.50
2018-09-13T06:08:31.596Z,2.13
2018-09-13T06:10:59.670Z,2.60
2018-09-13T06:13:28.419Z,2.43
2018-09-13T06:15:56.668Z,2.10
2018-09-13T06:18:24.786Z,2.10
2018-09-13T06:20:52.905Z,2.10
2018-09-13T06:23:20.996Z,2.20
2018-09-13T06:25:49.131Z,3.23
2018-09-13T06:28:17.327Z,1.90
2018-09-13T06:30:45.389Z,2.40
2018-09-13T06:33:13.503Z,2.73
2018-09-13T06:35:42.112Z,2.20
2018-09-13T06:38:10.276Z,2.10
2018-09-13T06:40:38.426Z,2.63
2018-09-13T06:43:06.535Z,2.83
2018-09-13T06:45:34.781Z,3.10
2018-09-13T06:48:02.986Z,2.43
2018-09-13T06:50:31.143Z,2.73
2018-09-13T06:52:59.709Z,2.47
2018-09-13T06:55:27.755Z,2.50
2018-09-13T06:57:55.896Z,2.37
2018-09-13T07:00:24.324Z,2.40
2018-09-13T07:02:52.497Z,2.20
2018-09-13T07:05:20.581Z,2.30
2018-09-13T07:07:49.637Z,2.20
2018-09-13T07:10:17.716Z,2.63
2018-09-13T07:12:45.917Z,2.50
2018-09-13T07:15:14.489Z,2.20
2018-09-13T07:17:42.832Z,2.20
2018-09-13T07:20:16.946Z,2.37
2018-09-13T07:22:45.115Z,2.03
2018-09-13T07:25:14.242Z,1.90
2018-09-13T07:27:43.345Z,2.03
2018-09-13T07:30:12.806Z,2.10
2018-09-13T07:33:11.477Z,2.00
2018-09-13T07:35:41.507Z,1.97
2018-09-13T07:38:09.787Z,2.20
2018-09-13T07:40:37.943Z,2.23
2018-09-13T07:43:07.116Z,2.33
2018-09-13T07:45:35.194Z,2.83
2018-09-13T07:48:03.351Z,2.53
2018-09-13T07:50:31.452Z,2.17
2018-09-13T07:52:59.569Z,2.70
2018-09-13T07:55:27.647Z,2.60
2018-09-13T07:57:55.790Z,2.53
2018-09-13T08:00:24.019Z,2.17
2018-09-13T08:02:52.102Z,2.33
2018-09-13T08:05:20.199Z,2.90
2018-09-13T08:07:48.269Z,2.40
2018-09-13T08:10:16.735Z,2.60
2018-09-13T08:12:44.836Z,2.43
2018-09-13T08:15:12.976Z,2.40
2018-09-13T08:17:41.443Z,2.10
2018-09-13T08:20:09.538Z,2.20
2018-09-13T08:22:37.649Z,2.20
2018-09-13T08:25:05.729Z,2.43
2018-09-13T08:27:33.799Z,2.60
2018-09-13T08:30:01.988Z,2.40
2018-09-13T08:32:30.110Z,2.40
2018-09-13T08:34:58.338Z,2.30
2018-09-13T08:37:26.339Z,2.40
2018-09-13T08:39:54.491Z,2.00
2018-09-13T08:42:22.628Z,2.83
2018-09-13T08:44:50.925Z,2.53
2018-09-13T08:47:19.027Z,2.20
2018-09-13T08:49:47.086Z,2.50
2018-09-13T08:52:15.228Z,2.20
2018-09-13T08:54:43.345Z,2.77
2018-09-13T08:57:11.492Z,2.47
2018-09-13T08:59:39.637Z,2.03
2018-09-13T09:02:07.779Z,2.40
2018-09-13T09:04:35.864Z,2.50
2018-09-13T09:07:03.977Z,2.80
2018-09-13T09:09:32.867Z,2.73
2018-09-13T09:12:01.053Z,3.10
2018-09-13T09:14:29.145Z,2.27
2018-09-13T09:16:57.295Z,2.33
2018-09-13T09:19:25.467Z,2.57
2018-09-13T09:21:54.256Z,2.57
2018-09-13T09:24:22.569Z,3.10
2018-09-13T09:26:50.708Z,3.13
2018-09-13T09:29:18.950Z,2.70
2018-09-13T09:31:47.045Z,2.63
2018-09-13T09:34:15.113Z,3.10
2018-09-13T09:36:43.266Z,2.50
2018-09-13T09:39:14.393Z,3.23
2018-09-13T09:41:43.586Z,4.57
2018-09-13T09:44:12.870Z,3.13
2018-09-13T09:46:40.972Z,2.40
2018-09-13T09:49:09.236Z,2.60
2018-09-13T09:51:37.427Z,2.10
2018-09-13T09:54:05.742Z,2.53
2018-09-13T09:56:33.916Z,2.77
2018-09-13T09:59:02.019Z,3.47
2018-09-13T10:01:34.422Z,9.20
2018-09-13T10:04:02.543Z,3.70
2018-09-13T10:06:32.165Z,3.00
2018-09-13T10:09:00.289Z,2.50
2018-09-13T10:11:28.391Z,2.53
2018-09-13T10:13:56.523Z,2.87
2018-09-13T10:16:30.305Z,3.83
2018-09-13T10:19:04.069Z,2.20
2018-09-13T10:21:38.782Z,2.60
2018-09-13T10:24:12.247Z,2.53
2018-09-13T10:33:59.941Z,2.60
2018-09-13T10:36:33.736Z,3.30
2018-09-13T10:39:07.406Z,2.40
2018-09-13T10:41:41.254Z,2.53
2018-09-13T10:44:14.739Z,2.50
2018-09-13T10:46:43.431Z,2.90
2018-09-13T10:49:17.191Z,2.50
2018-09-13T10:51:50.832Z,2.23
2018-09-13T10:54:54.411Z,2.07
2018-09-13T10:57:28.051Z,3.13
2018-09-13T10:59:56.403Z,2.83
2018-09-13T11:02:24.569Z,2.33
2018-09-13T11:04:52.890Z,2.70
2018-09-13T11:07:21.026Z,2.53
2018-09-13T11:09:49.197Z,2.67
2018-09-13T11:12:18.348Z,2.70
2018-09-13T11:14:51.638Z,2.30
2018-09-13T11:17:21.093Z,2.37
2018-09-13T11:19:49.230Z,2.80
2018-09-13T11:22:17.615Z,2.10
2018-09-13T11:24:45.995Z,2.57
2018-09-13T11:27:14.211Z,2.40
2018-09-13T11:29:42.433Z,2.80
2018-09-13T11:32:11.008Z,2.57
2018-09-13T11:34:39.189Z,2.00
2018-09-13T11:37:07.392Z,2.53
2018-09-13T11:39:35.514Z,2.33
2018-09-13T11:42:03.690Z,2.50
2018-09-13T11:44:31.927Z,2.23
2018-09-13T11:47:00.862Z,2.23
2018-09-13T11:49:29.125Z,1.97
2018-09-13T11:51:57.302Z,2.43
2018-09-13T11:54:25.361Z,1.83
2018-09-13T11:56:53.505Z,1.80
2018-09-13T11:59:21.648Z,2.27
2018-09-13T12:01:49.974Z,2.40
2018-09-13T12:04:18.139Z,2.33
2018-09-13T12:06:46.323Z,2.30
2018-09-13T12:09:15.978Z,2.50
2018-09-13T12:11:44.141Z,2.50
2018-09-13T12:14:12.255Z,2.30
2018-09-13T12:16:40.427Z,2.43
2018-09-13T12:19:08.635Z,2.00
2018-09-13T12:21:36.767Z,2.17
2018-09-13T12:24:05.016Z,2.07
2018-09-13T12:26:33.183Z,2.47
2018-09-13T12:29:01.501Z,2.50
2018-09-13T12:31:29.704Z,3.37
2018-09-13T12:33:57.861Z,2.70
2018-09-13T12:36:26.103Z,2.30
2018-09-13T12:38:54.250Z,2.17
2018-09-13T12:41:22.371Z,2.60
2018-09-13T12:43:50.489Z,2.07
2018-09-13T12:46:18.685Z,4.60
2018-09-13T12:48:47.478Z,3.27
2018-09-13T12:51:15.616Z,2.33
2018-09-13T12:53:43.919Z,2.90
2018-09-13T12:56:12.050Z,2.30
2018-09-13T12:58:40.714Z,2.43
2018-09-13T13:01:09.533Z,2.20
2018-09-13T13:03:37.749Z,2.40
2018-09-13T13:06:05.931Z,2.23
2018-09-13T13:08:34.056Z,2.43
2018-09-13T13:11:02.386Z,2.23
2018-09-13T13:13:30.574Z,3.10
2018-09-13T13:15:58.707Z,2.30
2018-09-13T13:18:26.885Z,2.77
2018-09-13T13:20:55.057Z,2.50
2018-09-13T13:23:23.339Z,2.33
2018-09-13T13:25:52.394Z,1.80
2018-09-13T13:28:20.570Z,2.80
2018-09-13T13:30:48.858Z,2.10
2018-09-13T13:33:17.725Z,2.40
2018-09-13T13:35:45.981Z,2.20
2018-09-13T13:38:14.111Z,2.07
2018-09-13T13:40:42.194Z,2.13
2018-09-13T13:43:10.340Z,2.73
2018-09-13T13:45:38.439Z,2.60
2018-09-13T13:48:06.637Z,2.07
2018-09-13T13:50:34.814Z,1.90
2018-09-13T13:53:02.953Z,2.17
2018-09-13T13:55:31.034Z,3.27
2018-09-13T13:57:59.154Z,2.30
2018-09-13T14:00:27.255Z,2.30
2018-09-13T14:02:55.318Z,2.53
2018-09-13T14:05:23.480Z,2.70
2018-09-13T14:07:51.563Z,1.83
2018-09-13T14:10:19.620Z,2.20
2018-09-13T14:12:47.792Z,1.80
2018-09-13T14:15:15.878Z,1.90
2018-09-13T14:17:44.026Z,2.03
2018-09-13T14:20:12.137Z,2.17
2018-09-13T14:22:40.256Z,2.23
2018-09-13T14:25:08.440Z,2.20
2018-09-13T14:27:36.600Z,2.40
2018-09-13T14:30:04.771Z,2.07
2018-09-13T14:32:32.992Z,2.00
2018-09-13T14:35:01.088Z,1.80
2018-09-13T14:37:29.164Z,2.27
2018-09-13T14:39:57.256Z,3.27
2018-09-13T14:42:25.428Z,2.43
2018-09-13T14:44:53.597Z,1.83
2018-09-13T14:47:21.666Z,2.40
2018-09-13T14:49:49.852Z,2.40
2018-09-13T14:52:17.985Z,2.30
2018-09-13T14:54:46.170Z,2.30
2018-09-13T14:57:14.256Z,2.30
2018-09-13T14:59:42.442Z,2.60
2018-09-13T15:02:10.582Z,2.53
2018-09-13T15:04:38.772Z,2.43
2018-09-13T15:07:06.884Z,2.10
2018-09-13T15:09:35.038Z,2.37
2018-09-13T15:12:03.252Z,2.10
2018-09-13T15:14:31.351Z,2.43
2018-09-13T15:16:59.452Z,2.20
2018-09-13T15:19:27.742Z,2.40
2018-09-13T15:21:55.975Z,2.60
2018-09-13T15:24:24.172Z,2.53
2018-09-13T15:26:52.300Z,2.27
2018-09-13T15:29:20.435Z,2.43
2018-09-13T15:31:48.573Z,2.57
2018-09-13T15:34:16.716Z,2.10
2018-09-13T15:36:44.886Z,2.20
2018-09-13T15:39:13.573Z,2.50
2018-09-13T15:41:42.159Z,3.13
2018-09-13T15:44:10.282Z,2.37
2018-09-13T15:46:38.572Z,2.70
2018-09-13T15:49:06.659Z,2.50
2018-09-13T15:51:34.868Z,2.30
2018-09-13T15:54:03.027Z,2.30
2018-09-13T15:56:31.116Z,2.20
2018-09-13T15:58:59.411Z,2.50
2018-09-13T16:01:27.651Z,2.47
2018-09-13T16:03:55.766Z,2.67
2018-09-13T16:06:23.908Z,2.67
2018-09-13T16:08:52.089Z,2.60
2018-09-13T16:11:20.201Z,2.77
2018-09-13T16:13:48.712Z,2.50
2018-09-13T16:16:16.885Z,2.60
2018-09-13T16:18:45.018Z,2.60
2018-09-13T16:21:13.141Z,2.70
2018-09-13T16:23:41.262Z,3.27
2018-09-13T16:26:09.381Z,2.73
2018-09-13T16:28:37.513Z,3.30
2018-09-13T16:31:05.725Z,2.47
2018-09-13T16:33:33.957Z,2.83
2018-09-13T16:36:02.239Z,2.10
2018-09-13T16:38:35.965Z,3.30
2018-09-13T16:41:09.631Z,3.40
2018-09-13T16:43:43.449Z,3.50
2018-09-13T16:46:15.875Z,2.93
2018-09-13T16:48:45.448Z,2.90
2018-09-13T16:51:13.622Z,3.40
2018-09-13T16:53:41.770Z,3.03
2018-09-13T16:56:09.908Z,3.07
2018-09-13T16:58:38.056Z,3.70
2018-09-13T17:01:06.226Z,4.63
2018-09-13T17:03:34.416Z,4.20
2018-09-13T17:06:02.540Z,2.90
2018-09-13T17:08:30.619Z,3.03
2018-09-13T17:10:58.728Z,3.80
2018-09-13T17:13:26.883Z,4.93
2018-09-13T17:15:54.962Z,4.00
2018-09-13T17:18:23.082Z,3.53
2018-09-13T17:20:51.155Z,3.47
2018-09-13T17:23:19.314Z,3.37
2018-09-13T17:25:47.406Z,3.57
2018-09-13T17:28:15.518Z,3.30
2018-09-13T17:30:43.602Z,3.50
2018-09-13T17:33:11.712Z,3.27
2018-09-13T17:35:39.806Z,3.37
2018-09-13T17:38:07.922Z,4.40
2018-09-13T17:40:36.061Z,3.40
2018-09-13T17:43:04.237Z,3.10
2018-09-13T17:45:32.351Z,3.20
2018-09-13T17:48:00.528Z,3.63
2018-09-13T17:50:28.608Z,3.67
2018-09-13T17:52:56.748Z,3.70
2018-09-13T17:55:24.862Z,3.53
2018-09-13T17:57:52.969Z,4.10
2018-09-13T18:00:21.803Z,4.37
2018-09-13T18:02:49.978Z,4.13
2018-09-13T18:05:18.153Z,4.70
2018-09-13T18:07:47.679Z,4.70
2018-09-13T18:10:16.002Z,5.30
2018-09-13T18:12:44.066Z,5.10
2018-09-13T18:15:12.334Z,5.10
2018-09-13T18:17:42.215Z,5.50
2018-09-13T18:20:10.330Z,5.43
2018-09-13T18:22:41.188Z,6.03
2018-09-13T18:25:09.231Z,4.90
2018-09-13T18:27:37.324Z,3.60
2018-09-13T18:30:05.447Z,6.80
2018-09-13T18:32:33.581Z,3.80
2018-09-13T18:37:45.718Z,5.67
2018-09-13T18:40:19.785Z,5.00
2018-09-13T18:42:54.723Z,4.70
2018-09-13T18:45:23.405Z,4.43
2018-09-13T18:47:52.355Z,5.03
2018-09-13T18:50:22.264Z,3.17
2018-09-13T18:53:04.414Z,4.70
2018-09-13T18:55:32.643Z,5.50
2018-09-13T18:58:00.873Z,4.03
2018-09-13T19:00:29.777Z,3.90
2018-09-13T19:02:58.627Z,3.93
2018-09-13T19:05:28.277Z,4.57
2018-09-13T19:07:56.439Z,4.80
2018-09-13T19:10:24.546Z,5.90
2018-09-13T19:12:52.614Z,5.20
2018-09-13T19:15:20.797Z,4.77
2018-09-13T19:17:49.991Z,5.87
2018-09-13T19:20:19.101Z,5.93
2018-09-13T19:22:48.652Z,4.10
2018-09-13T19:25:17.044Z,7.23
2018-09-13T19:27:47.143Z,4.83
2018-09-13T19:30:15.348Z,4.17
2018-09-13T19:32:49.929Z,3.90
2018-09-13T19:35:19.392Z,4.10
2018-09-13T19:37:47.601Z,4.83
2018-09-13T19:40:16.723Z,6.10
2018-09-13T19:42:46.798Z,4.33
2018-09-13T19:45:16.529Z,4.33
2018-09-13T19:47:44.806Z,5.70
2018-09-13T19:50:14.950Z,5.67
2018-09-13T19:52:44.560Z,4.57
2018-09-13T19:55:16.323Z,4.17
2018-09-13T19:57:44.598Z,3.53
2018-09-13T20:00:12.911Z,4.93
2018-09-13T20:02:41.396Z,4.70
2018-09-13T20:05:09.683Z,4.40
2018-09-13T20:07:37.942Z,4.03
2018-09-13T20:10:07.155Z,4.97
2018-09-13T20:12:41.419Z,4.57
2018-09-13T20:15:09.521Z,4.97
2018-09-13T20:17:37.673Z,5.10
2018-09-13T20:20:05.979Z,3.50
2018-09-13T20:22:35.990Z,6.43
2018-09-13T20:25:04.106Z,5.20
2018-09-13T20:27:33.399Z,4.37
2018-09-13T20:30:02.206Z,3.60
2018-09-13T20:32:30.637Z,3.17
2018-09-13T20:34:58.827Z,4.03
2018-09-13T20:37:28.357Z,3.30
2018-09-13T20:39:56.591Z,3.80
2018-09-13T20:42:24.770Z,3.20
2018-09-13T20:44:54.890Z,2.97
2018-09-13T20:47:23.034Z,3.33
2018-09-13T20:49:51.184Z,3.70
2018-09-13T20:52:22.722Z,3.50
2018-09-13T20:54:51.398Z,3.60
2018-09-13T20:57:19.509Z,3.20
2018-09-13T20:59:48.580Z,2.70
2018-09-13T21:02:16.840Z,3.67
2018-09-13T21:04:45.216Z,3.07
2018-09-13T21:07:15.884Z,4.00
2018-09-13T21:09:44.081Z,3.27
2018-09-13T21:12:12.216Z,3.83
2018-09-13T21:14:41.082Z,3.33
2018-09-13T21:17:09.370Z,3.50
2018-09-13T21:19:37.628Z,3.20
2018-09-13T21:22:05.867Z,3.13
2018-09-13T21:24:34.161Z,3.50
2018-09-13T21:27:02.997Z,3.90
2018-09-13T21:29:31.221Z,3.73
2018-09-13T21:32:06.861Z,2.90
2018-09-13T21:34:35.085Z,3.27
2018-09-13T21:37:03.289Z,3.50
2018-09-13T21:39:31.486Z,3.07
2018-09-13T21:41:59.863Z,2.80
2018-09-13T21:44:28.092Z,2.90
2018-09-13T21:46:56.183Z,2.83
2018-09-13T21:49:24.435Z,3.10
2018-09-13T21:51:52.873Z,3.07
2018-09-13T21:54:22.794Z,3.13
2018-09-13T21:56:50.924Z,3.37
2018-09-13T21:59:19.182Z,3.47
2018-09-13T22:01:47.676Z,2.90
2018-09-13T22:04:16.779Z,2.97
2018-09-13T22:06:44.957Z,3.30
2018-09-13T22:09:15.429Z,2.87
2018-09-13T22:11:43.789Z,3.53
2018-09-13T22:14:12.012Z,3.40
2018-09-13T22:16:40.175Z,3.80
2018-09-13T22:19:08.322Z,4.10
2018-09-13T22:21:36.763Z,3.63
2018-09-13T22:24:06.029Z,4.00
2018-09-13T22:26:35.243Z,4.60
2018-09-13T22:29:03.683Z,4.00
2018-09-13T22:31:32.903Z,3.83
2018-09-13T22:34:01.155Z,4.03
2018-09-13T22:36:30.174Z,3.57
2018-09-13T22:38:58.703Z,4.00
2018-09-13T22:41:26.901Z,3.90
2018-09-13T22:43:56.478Z,4.57
2018-09-13T22:46:24.784Z,3.80
2018-09-13T22:48:53.034Z,3.97
2018-09-13T22:51:21.404Z,3.90
2018-09-13T22:53:49.599Z,3.83
2018-09-13T22:56:19.632Z,4.00
2018-09-13T22:58:47.860Z,3.50
2018-09-13T23:01:17.090Z,3.70
2018-09-13T23:03:45.622Z,4.03
2018-09-13T23:06:15.774Z,3.80
2018-09-13T23:08:45.074Z,3.33
2018-09-13T23:11:13.419Z,3.67
2018-09-13T23:13:41.710Z,4.00
2018-09-13T23:16:10.139Z,4.00
2018-09-13T23:18:38.387Z,3.40
2018-09-13T23:21:06.605Z,3.80
2018-09-13T23:23:34.818Z,3.87
2018-09-13T23:26:03.096Z,4.00
2018-09-13T23:28:31.664Z,4.00
2018-09-13T23:30:59.805Z,3.90
2018-09-13T23:33:28.355Z,3.73
2018-09-13T23:35:56.874Z,3.80
2018-09-13T23:38:25.038Z,4.00
2018-09-13T23:40:53.349Z,4.10
2018-09-13T23:43:21.644Z,3.90
2018-09-13T23:45:49.915Z,3.83
2018-09-13T23:48:19.377Z,3.60
2018-09-13T23:50:47.858Z,3.60
2018-09-13T23:53:17.465Z,4.10
2018-09-13T23:55:49.646Z,3.77
2018-09-13T23:58:18.744Z,4.00
